createdAt,value
2022-11-22T00:00:32.415Z,15
2022-11-22T00:10:32.278Z,15
2022-11-22T00:20:32.408Z,15
2022-11-22T00:30:32.491Z,15
2022-11-22T00:40:32.400Z,15
2022-11-22T00:50:32.480Z,15
2022-11-22T01:00:32.467Z,15
2022-11-22T01:10:32.474Z,15
2022-11-22T01:20:32.400Z,14.9
2022-11-22T01:30:32.477Z,14.9
2022-11-22T01:40:32.600Z,14.9
2022-11-22T01:50:32.462Z,14.9
2022-11-22T02:00:32.588Z,14.9
2022-11-22T02:10:32.454Z,14.9
2022-11-22T02:20:32.589Z,14.9
2022-11-22T02:30:32.463Z,14.8
2022-11-22T02:40:32.581Z,14.8
2022-11-22T02:50:32.452Z,14.8
2022-11-22T03:00:32.608Z,14.9
2022-11-22T03:10:32.635Z,14.8
2022-11-22T03:20:32.585Z,14.8
2022-11-22T03:30:32.642Z,14.8
2022-11-22T03:40:32.576Z,14.8
2022-11-22T03:50:32.661Z,14.7
2022-11-22T04:00:32.574Z,14.7
2022-11-22T04:10:32.653Z,14.7
2022-11-22T04:20:32.570Z,14.7
2022-11-22T04:30:32.636Z,14.7
2022-11-22T04:40:32.761Z,14.7
2022-11-22T04:50:32.632Z,14.7
2022-11-22T05:00:32.766Z,14.7
2022-11-22T05:10:32.617Z,14.7
2022-11-22T05:20:32.761Z,14.7
2022-11-22T05:30:32.625Z,14.7
2022-11-22T05:40:32.747Z,14.6
2022-11-22T05:50:32.622Z,14.6
2022-11-22T06:00:32.749Z,14.6
2022-11-22T06:10:32.821Z,14.6
2022-11-22T06:20:32.743Z,14.5
2022-11-22T06:30:32.825Z,14.5
2022-11-22T06:40:32.747Z,14.5
2022-11-22T06:50:32.817Z,14.5
2022-11-22T07:00:32.722Z,14.5
2022-11-22T07:10:32.797Z,14.5
2022-11-22T07:20:32.722Z,14.5
2022-11-22T07:30:32.789Z,14.5
2022-11-22T07:40:32.923Z,14.4
2022-11-22T07:50:32.797Z,14.4
2022-11-22T08:00:33.023Z,14.4
2022-11-22T08:10:32.792Z,14.4
2022-11-22T08:20:33.014Z,14.4
2022-11-22T08:30:32.779Z,14.4
2022-11-22T08:40:36.737Z,14.4
2022-11-22T08:50:32.984Z,14.4
2022-11-22T09:00:33.604Z,14.4
2022-11-22T09:10:32.987Z,14.4
2022-11-22T09:20:32.996Z,14.4
2022-11-22T09:30:32.961Z,14.4
2022-11-22T09:40:33.002Z,14.4
2022-11-22T09:50:32.972Z,14.4
2022-11-22T10:00:32.990Z,14.4
2022-11-22T10:10:32.980Z,14.4
2022-11-22T10:20:33.205Z,14.4
2022-11-22T10:30:32.968Z,14.6
2022-11-22T10:40:33.200Z,14.6
2022-11-22T10:50:32.971Z,14.7
2022-11-22T11:00:33.199Z,14.9
2022-11-22T11:10:34.676Z,15
2022-11-22T11:20:33.221Z,15.1
2022-11-22T11:30:33.007Z,15.2
2022-11-22T11:40:33.242Z,15.3
2022-11-22T11:50:32.977Z,15.4
2022-11-22T12:00:33.223Z,15.5
2022-11-22T12:10:33.178Z,15.6
2022-11-22T12:20:33.222Z,15.7
2022-11-22T12:30:33.186Z,15.9
2022-11-22T12:40:33.204Z,16
2022-11-22T12:50:33.158Z,15.9
2022-11-22T13:00:33.195Z,15.9
2022-11-22T13:10:33.164Z,16.2
2022-11-22T13:20:35.819Z,16.3
2022-11-22T13:30:33.163Z,16.5
2022-11-22T13:40:33.381Z,16.7
2022-11-22T13:50:33.155Z,16.7
2022-11-22T14:00:33.399Z,16.6
2022-11-22T14:10:33.165Z,16.6
2022-11-22T14:20:33.368Z,16.2
2022-11-22T14:30:33.136Z,16
2022-11-22T14:40:33.359Z,15.8
2022-11-22T14:50:33.341Z,15.7
2022-11-22T15:00:33.364Z,15.6
2022-11-22T15:10:33.341Z,15.5
2022-11-22T16:00:33.409Z,15.3
2022-11-22T16:10:33.353Z,15.3
2022-11-22T16:20:33.324Z,15.2
2022-11-22T16:30:33.388Z,15.2
2022-11-22T16:40:33.600Z,15.2
2022-11-22T16:50:33.354Z,15.2
2022-11-22T17:00:33.503Z,15.1
2022-11-22T17:10:33.348Z,15.1
2022-11-22T17:20:33.564Z,15.1
2022-11-22T17:30:33.340Z,15.1
2022-11-22T17:40:33.574Z,15
2022-11-22T17:50:33.555Z,15
2022-11-22T18:00:33.573Z,15
2022-11-22T18:10:33.544Z,15
2022-11-22T18:20:33.567Z,15
2022-11-22T18:30:33.539Z,14.9
2022-11-22T18:40:33.552Z,14.9
2022-11-22T18:50:33.542Z,14.9
2022-11-22T19:00:33.573Z,14.9
2022-11-22T19:10:33.543Z,14.9
2022-11-22T19:20:53.911Z,14.9
2022-11-22T19:30:33.527Z,14.8
2022-11-22T19:40:33.741Z,14.8
2022-11-22T19:50:33.522Z,14.8
2022-11-22T20:00:33.760Z,14.8
2022-11-22T20:10:33.506Z,14.8
2022-11-22T20:20:33.744Z,14.8
2022-11-22T20:30:33.532Z,14.8
2022-11-22T20:40:33.738Z,14.7
2022-11-22T20:50:33.728Z,14.7
2022-11-22T21:00:33.780Z,14.7
2022-11-22T21:10:33.737Z,14.7
2022-11-22T21:20:33.761Z,14.6
2022-11-22T21:30:33.721Z,14.6
2022-11-22T21:40:33.743Z,14.6
2022-11-22T21:50:33.745Z,14.6
2022-11-22T22:00:33.907Z,14.6
2022-11-22T22:10:33.675Z,14.6
2022-11-22T22:20:33.913Z,14.6
2022-11-22T22:30:33.673Z,14.6
2022-11-22T22:40:33.898Z,14.6
2022-11-22T22:50:33.682Z,14.5
2022-11-22T23:00:33.885Z,14.5
2022-11-22T23:10:33.678Z,14.5
2022-11-22T23:20:33.892Z,14.5
2022-11-22T23:30:33.675Z,14.5
2022-11-22T23:40:33.919Z,14.5
2022-11-22T23:50:37.257Z,14.5
